Time;durP1;ratioP1;P1;durP2;ratioP2;P2;SDS_P1;SDS_P2;PMS_P1;PMS_P2;Temp;Humidity;BMP_temperature;BMP_pressure;BME280_temperature;BME280_humidity;BME280_pressure;Samples;Min_cycle;Max_cycle;Signal;HPM_P1;HPM_P2
2022/04/30 00:00:21;;;;;;;10.00;4.20;;;8.00;99.90;;;;;;5017792;28;20177;-82
2022/04/30 00:02:47;;;;;;;8.47;3.63;;;8.00;99.90;;;;;;5016903;28;20722;-82
2022/04/30 00:05:14;;;;;;;6.97;3.63;;;8.00;99.90;;;;;;5017612;28;20664;-83
2022/04/30 00:07:40;;;;;;;9.63;4.10;;;7.90;99.90;;;;;;5017487;28;20194;-83
2022/04/30 00:10:06;;;;;;;6.93;3.60;;;7.80;99.90;;;;;;5017335;28;20271;-83
2022/04/30 00:12:32;;;;;;;8.70;4.00;;;7.80;99.90;;;;;;5016870;28;20225;-82
2022/04/30 00:14:57;;;;;;;9.73;3.90;;;7.80;99.90;;;;;;5017830;28;20199;-82
2022/04/30 00:17:23;;;;;;;10.13;4.00;;;7.80;99.90;;;;;;5016932;28;20204;-82
2022/04/30 00:19:49;;;;;;;6.40;3.87;;;7.80;99.90;;;;;;5016891;28;20229;-82
2022/04/30 00:22:14;;;;;;;9.27;4.00;;;7.80;99.90;;;;;;5016668;28;20185;-82
2022/04/30 00:24:40;;;;;;;10.20;4.10;;;7.60;99.90;;;;;;5017937;28;20182;-82
2022/04/30 00:27:06;;;;;;;8.93;3.33;;;7.60;99.90;;;;;;5017126;28;20237;-82
2022/04/30 00:29:32;;;;;;;11.17;4.07;;;7.60;99.90;;;;;;5017097;28;20206;-82
2022/04/30 00:32:01;;;;;;;7.77;3.83;;;7.50;99.90;;;;;;5016696;28;20174;-82
2022/04/30 00:34:26;;;;;;;12.20;4.13;;;7.60;99.90;;;;;;5017196;28;20174;-82
2022/04/30 00:36:52;;;;;;;8.00;3.80;;;7.60;99.90;;;;;;5016285;28;20209;-82
2022/04/30 00:39:18;;;;;;;10.50;4.50;;;7.50;99.90;;;;;;5016115;28;20231;-83
2022/04/30 00:41:45;;;;;;;8.47;4.07;;;7.50;99.90;;;;;;5015949;28;20201;-83
2022/04/30 00:44:11;;;;;;;11.40;4.00;;;7.50;99.90;;;;;;5016907;28;20250;-82
2022/04/30 00:46:37;;;;;;;6.83;4.07;;;7.40;99.90;;;;;;5015876;28;20228;-82
2022/04/30 00:49:03;;;;;;;8.40;4.13;;;7.40;99.90;;;;;;5015990;28;20257;-82
2022/04/30 00:51:31;;;;;;;10.77;4.27;;;7.30;99.90;;;;;;5015723;28;20182;-83
2022/04/30 00:53:57;;;;;;;7.70;4.40;;;7.30;99.90;;;;;;5016572;28;20231;-82
2022/04/30 00:56:32;;;;;;;8.43;4.23;;;7.30;99.90;;;;;;5015879;28;20312;-83
2022/04/30 00:59:04;;;;;;;6.23;4.13;;;7.30;99.90;;;;;;5015937;28;20172;-82
2022/04/30 01:01:35;;;;;;;10.87;4.07;;;7.30;99.90;;;;;;5015664;28;20164;-82
2022/04/30 01:04:01;;;;;;;5.50;4.33;;;7.30;99.90;;;;;;5016097;28;20184;-82
2022/04/30 01:06:48;;;;;;;15.13;4.07;;;7.20;99.90;;;;;;5015585;28;20742;-82
2022/04/30 01:09:14;;;;;;;9.40;4.20;;;7.20;99.90;;;;;;5015846;28;20228;-82
2022/04/30 01:11:42;;;;;;;12.37;4.57;;;7.20;99.90;;;;;;5015803;28;20172;-82
2022/04/30 01:14:08;;;;;;;10.27;4.43;;;7.20;99.90;;;;;;5016228;28;20185;-82
2022/04/30 01:16:35;;;;;;;9.13;4.33;;;7.10;99.90;;;;;;5015513;28;20193;-82
2022/04/30 01:19:05;;;;;;;11.37;4.53;;;7.10;99.90;;;;;;5015698;28;20296;-82
2022/04/30 01:21:32;;;;;;;10.03;4.30;;;7.10;99.90;;;;;;5015262;28;20527;-82
2022/04/30 01:24:02;;;;;;;11.40;4.60;;;7.10;99.90;;;;;;5016142;28;20272;-83
2022/04/30 01:26:28;;;;;;;9.13;4.57;;;7.20;99.90;;;;;;5016466;28;20211;-82
2022/04/30 01:28:54;;;;;;;10.03;4.90;;;7.00;99.90;;;;;;5016076;28;20267;-82
2022/04/30 01:39:32;;;;;;;7.90;4.23;;;6.90;99.90;;;;;;5034250;28;20175;-83
2022/04/30 01:42:04;;;;;;;11.03;4.77;;;6.90;99.90;;;;;;5015326;28;20194;-82
2022/04/30 01:44:30;;;;;;;7.07;4.87;;;6.80;99.90;;;;;;5016382;28;20638;-83
2022/04/30 01:46:58;;;;;;;17.70;4.70;;;6.80;99.90;;;;;;5025263;28;20212;-83
2022/04/30 01:49:23;;;;;;;14.13;5.20;;;6.80;99.90;;;;;;5015163;28;20259;-83
2022/04/30 01:51:50;;;;;;;8.83;5.07;;;6.80;99.90;;;;;;5016079;28;20624;-82
2022/04/30 01:54:16;;;;;;;8.37;4.57;;;6.70;99.90;;;;;;5018209;28;20204;-83
2022/04/30 01:56:42;;;;;;;12.23;4.93;;;6.80;99.90;;;;;;5015973;28;20696;-82
2022/04/30 01:59:07;;;;;;;10.33;4.93;;;6.70;99.90;;;;;;5016175;28;20174;-82
2022/04/30 02:01:36;;;;;;;11.13;4.80;;;6.80;99.90;;;;;;5015904;28;20188;-83
2022/04/30 02:04:02;;;;;;;11.13;5.10;;;6.80;99.90;;;;;;5015680;28;20655;-83
2022/04/30 02:06:29;;;;;;;9.10;5.83;;;6.70;99.90;;;;;;5014851;28;20214;-82
2022/04/30 02:08:55;;;;;;;10.23;4.90;;;6.80;99.90;;;;;;5015478;28;20174;-82
2022/04/30 02:11:22;;;;;;;9.83;4.93;;;6.80;99.90;;;;;;5015829;28;20179;-82
2022/04/30 02:13:52;;;;;;;8.93;5.00;;;6.80;99.90;;;;;;5016498;28;20173;-82
2022/04/30 02:16:23;;;;;;;12.67;5.73;;;6.70;99.90;;;;;;5015940;28;20207;-82
2022/04/30 02:18:50;;;;;;;11.27;5.50;;;6.60;99.90;;;;;;5016148;28;20183;-83
2022/04/30 02:21:21;;;;;;;14.47;5.63;;;6.80;99.90;;;;;;5015797;28;20201;-82
2022/04/30 02:23:49;;;;;;;11.60;5.63;;;6.70;99.90;;;;;;5016671;28;20177;-82
2022/04/30 02:26:16;;;;;;;12.73;5.60;;;6.80;99.90;;;;;;5015166;28;20583;-82
2022/04/30 02:31:23;;;;;;;9.47;5.73;;;6.70;99.90;;;;;;5012882;28;20258;-78
2022/04/30 02:33:54;;;;;;;15.73;5.97;;;6.60;99.90;;;;;;5012619;28;20250;-79
2022/04/30 02:36:25;;;;;;;16.77;5.67;;;6.60;99.90;;;;;;5012296;28;20203;-79
2022/04/30 02:38:52;;;;;;;12.43;5.27;;;6.60;99.90;;;;;;5012293;28;20193;-79
2022/04/30 02:41:20;;;;;;;14.50;5.40;;;6.60;99.90;;;;;;5012078;28;20220;-79
2022/04/30 02:43:46;;;;;;;9.80;5.60;;;6.70;99.90;;;;;;5012237;28;20180;-79
2022/04/30 02:46:14;;;;;;;12.77;6.13;;;6.60;99.90;;;;;;5012245;28;20214;-80
2022/04/30 02:48:39;;;;;;;12.63;5.53;;;6.60;99.90;;;;;;5011662;28;20522;-80
2022/04/30 02:51:05;;;;;;;16.50;5.10;;;6.50;99.90;;;;;;5011278;28;20182;-78
2022/04/30 02:53:31;;;;;;;14.17;5.50;;;6.50;99.90;;;;;;5012021;28;20174;-79
2022/04/30 02:55:56;;;;;;;12.40;5.37;;;6.50;99.90;;;;;;5011766;28;21356;-80
2022/04/30 03:01:06;;;;;;;12.57;5.57;;;6.30;99.90;;;;;;5014780;28;20172;-80
2022/04/30 03:03:32;;;;;;;9.23;6.00;;;6.30;99.90;;;;;;5015743;28;20173;-79
2022/04/30 03:05:58;;;;;;;13.00;5.67;;;6.40;99.90;;;;;;5015226;28;20237;-79
2022/04/30 03:08:26;;;;;;;14.30;5.53;;;6.30;99.90;;;;;;5015716;28;20177;-79
2022/04/30 03:10:55;;;;;;;10.23;5.87;;;6.30;99.90;;;;;;5015697;28;20177;-80
2022/04/30 03:13:21;;;;;;;15.57;5.87;;;6.30;99.90;;;;;;5015353;28;20171;-80
2022/04/30 03:15:52;;;;;;;10.20;5.33;;;6.30;99.90;;;;;;5015429;28;20171;-79
2022/04/30 03:23:38;;;;;;;15.67;5.87;;;6.20;99.90;;;;;;5016973;28;20191;-80
2022/04/30 03:26:05;;;;;;;17.50;6.30;;;6.30;99.90;;;;;;5015151;28;20214;-79
2022/04/30 03:28:37;;;;;;;20.20;6.50;;;6.20;99.90;;;;;;5015170;28;20698;-80
2022/04/30 03:31:03;;;;;;;11.23;6.10;;;6.20;99.90;;;;;;5014662;28;20192;-79
2022/04/30 03:33:29;;;;;;;13.53;6.17;;;6.10;99.90;;;;;;5015585;28;20169;-80
2022/04/30 03:35:55;;;;;;;12.53;6.83;;;6.00;99.90;;;;;;5014935;28;20713;-80
2022/04/30 03:38:21;;;;;;;16.43;6.60;;;6.00;99.90;;;;;;5015006;28;20215;-80
2022/04/30 03:40:46;;;;;;;11.73;6.13;;;6.10;99.90;;;;;;5014685;28;20215;-80
2022/04/30 03:43:14;;;;;;;17.67;7.03;;;6.00;99.90;;;;;;5014418;28;20822;-79
2022/04/30 03:45:41;;;;;;;10.47;6.33;;;6.00;99.90;;;;;;5014966;28;20198;-80
2022/04/30 03:48:07;;;;;;;16.97;6.17;;;6.00;99.90;;;;;;5014373;28;20284;-80
2022/04/30 03:50:33;;;;;;;12.67;6.20;;;5.90;99.90;;;;;;5015976;28;20213;-80
2022/04/30 03:52:59;;;;;;;15.10;6.27;;;5.90;99.90;;;;;;5014573;28;20198;-79
2022/04/30 03:55:26;;;;;;;18.47;6.67;;;6.00;99.90;;;;;;5014825;28;20646;-79
2022/04/30 03:57:53;;;;;;;13.80;6.60;;;5.90;99.90;;;;;;5014711;28;20224;-79
2022/04/30 04:00:19;;;;;;;11.50;5.73;;;5.70;99.90;;;;;;5014574;28;20243;-79
2022/04/30 04:02:45;;;;;;;16.47;6.00;;;5.80;99.90;;;;;;5014070;28;20171;-79
2022/04/30 04:05:12;;;;;;;19.07;6.20;;;5.90;99.90;;;;;;5014597;28;20552;-80
2022/04/30 04:07:42;;;;;;;14.13;6.23;;;5.80;99.90;;;;;;5014001;28;20193;-80
2022/04/30 04:10:12;;;;;;;13.10;6.33;;;5.80;99.90;;;;;;5014376;28;20654;-79
2022/04/30 04:12:39;;;;;;;13.83;6.43;;;5.80;99.90;;;;;;5013095;28;20217;-80
2022/04/30 04:17:50;;;;;;;13.37;6.90;;;5.60;99.90;;;;;;5015932;28;20595;-80
2022/04/30 04:20:18;;;;;;;14.73;6.47;;;5.70;99.90;;;;;;5014244;28;20178;-79
2022/04/30 04:22:45;;;;;;;19.17;6.80;;;5.70;99.90;;;;;;5013823;28;20226;-79
2022/04/30 04:27:58;;;;;;;17.40;6.57;;;5.70;99.90;;;;;;5015669;28;20229;-79
2022/04/30 04:30:29;;;;;;;11.47;6.10;;;5.80;99.90;;;;;;5013763;28;20203;-79
2022/04/30 04:32:56;;;;;;;13.97;6.53;;;5.80;99.90;;;;;;5013994;28;20215;-79
2022/04/30 04:35:22;;;;;;;15.23;6.47;;;5.90;99.90;;;;;;5013979;28;20627;-79
2022/04/30 04:37:48;;;;;;;11.00;6.37;;;5.90;99.90;;;;;;5014034;28;20287;-80
2022/04/30 04:40:15;;;;;;;13.80;6.33;;;5.90;99.90;;;;;;5013713;28;20666;-79
2022/04/30 04:42:42;;;;;;;15.27;6.40;;;6.00;99.90;;;;;;5013430;28;20270;-80
2022/04/30 04:45:09;;;;;;;14.80;6.57;;;6.00;99.90;;;;;;5013730;28;20540;-80
2022/04/30 04:47:41;;;;;;;12.03;5.90;;;5.90;99.90;;;;;;5013073;28;20257;-80
2022/04/30 04:50:14;;;;;;;14.63;6.40;;;6.00;99.90;;;;;;5013910;28;20197;-79
2022/04/30 04:52:44;;;;;;;12.80;5.93;;;6.00;99.90;;;;;;5013825;28;20165;-79
2022/04/30 04:55:10;;;;;;;13.20;6.07;;;6.10;99.90;;;;;;5014271;28;20168;-80
2022/04/30 04:57:36;;;;;;;19.00;6.23;;;6.10;99.90;;;;;;5013238;28;20194;-80
2022/04/30 05:00:04;;;;;;;21.87;6.77;;;6.00;99.90;;;;;;5013502;28;20181;-79
2022/04/30 05:02:29;;;;;;;13.83;6.90;;;6.10;99.90;;;;;;5013277;28;20182;-79
2022/04/30 05:04:55;;;;;;;15.67;7.00;;;6.10;99.90;;;;;;5013580;28;20543;-81
2022/04/30 05:07:21;;;;;;;11.50;6.43;;;6.10;99.90;;;;;;5012976;28;20210;-79
2022/04/30 05:09:46;;;;;;;13.83;6.47;;;6.20;99.90;;;;;;5013517;28;20191;-79
2022/04/30 05:12:13;;;;;;;20.30;6.90;;;6.30;99.90;;;;;;5013474;28;20266;-80
2022/04/30 05:14:38;;;;;;;19.33;6.63;;;6.30;99.90;;;;;;5013416;28;20544;-79
2022/04/30 05:17:06;;;;;;;16.17;6.37;;;6.40;99.90;;;;;;5013418;28;20199;-79
2022/04/30 05:19:33;;;;;;;15.40;6.90;;;6.60;99.90;;;;;;5013092;28;20175;-79
2022/04/30 05:21:59;;;;;;;15.10;6.30;;;6.50;99.90;;;;;;5012624;28;20232;-80
2022/04/30 05:24:24;;;;;;;12.13;6.10;;;6.70;99.90;;;;;;5012716;28;20179;-79
2022/04/30 05:26:50;;;;;;;19.47;6.43;;;6.90;99.90;;;;;;5012827;28;20246;-80
2022/04/30 05:29:16;;;;;;;15.57;6.70;;;7.00;99.90;;;;;;5012717;28;20181;-81
2022/04/30 05:31:42;;;;;;;12.77;5.90;;;7.10;99.90;;;;;;5012735;28;20185;-80
2022/04/30 05:34:08;;;;;;;11.03;6.30;;;7.00;99.90;;;;;;5013394;28;20199;-80
2022/04/30 05:36:34;;;;;;;11.93;6.27;;;7.10;99.90;;;;;;5012843;28;20686;-80
2022/04/30 05:39:00;;;;;;;13.90;5.97;;;7.10;99.90;;;;;;5012751;28;20792;-80
2022/04/30 05:41:26;;;;;;;13.60;6.50;;;7.20;99.90;;;;;;5012154;28;20168;-80
2022/04/30 05:43:52;;;;;;;16.23;6.60;;;7.20;99.90;;;;;;5012802;28;20177;-79
2022/04/30 05:46:18;;;;;;;12.27;6.57;;;7.40;99.90;;;;;;5012450;28;20259;-80
2022/04/30 05:48:44;;;;;;;17.23;6.17;;;7.60;99.90;;;;;;5012619;28;20179;-80
2022/04/30 05:51:09;;;;;;;11.30;6.17;;;7.70;99.90;;;;;;5012318;28;20179;-80
2022/04/30 05:53:35;;;;;;;12.77;6.20;;;7.90;99.90;;;;;;5013194;28;20639;-80
2022/04/30 05:56:01;;;;;;;12.77;5.60;;;8.10;99.90;;;;;;5012746;28;20175;-80
2022/04/30 05:58:26;;;;;;;15.47;5.57;;;8.10;99.90;;;;;;5012597;28;20221;-79
2022/04/30 06:00:52;;;;;;;14.40;5.97;;;8.20;99.90;;;;;;5012793;28;20182;-80
2022/04/30 06:03:18;;;;;;;12.80;5.57;;;8.60;99.90;;;;;;5012668;28;20174;-79
2022/04/30 06:05:43;;;;;;;14.23;5.93;;;8.80;99.90;;;;;;5012200;28;20213;-80
2022/04/30 06:08:09;;;;;;;12.47;5.73;;;9.00;99.90;;;;;;5012711;28;20205;-81
2022/04/30 06:10:35;;;;;;;12.03;5.60;;;9.40;99.90;;;;;;5012637;28;20171;-79
2022/04/30 06:13:01;;;;;;;11.20;5.60;;;9.30;99.90;;;;;;5011965;28;20224;-80
2022/04/30 06:15:28;;;;;;;8.83;5.40;;;9.70;99.90;;;;;;5012641;28;20176;-80
2022/04/30 06:17:54;;;;;;;12.50;6.23;;;9.80;99.90;;;;;;5012410;28;20193;-80
2022/04/30 06:20:19;;;;;;;11.30;5.53;;;9.70;99.90;;;;;;5013274;28;20589;-79
2022/04/30 06:22:45;;;;;;;11.90;5.77;;;9.70;99.90;;;;;;5012634;28;20534;-80
2022/04/30 06:25:11;;;;;;;9.80;5.87;;;9.90;99.90;;;;;;5013070;28;20171;-79
2022/04/30 06:27:37;;;;;;;7.87;5.50;;;9.80;99.90;;;;;;5012264;28;20209;-81
2022/04/30 06:30:04;;;;;;;11.77;5.30;;;10.00;99.90;;;;;;5011757;28;20194;-79
2022/04/30 06:32:29;;;;;;;9.03;5.30;;;10.40;99.90;;;;;;5012374;28;20597;-80
2022/04/30 06:34:55;;;;;;;12.47;5.80;;;10.20;99.90;;;;;;5012487;28;20175;-80
2022/04/30 06:37:21;;;;;;;14.47;5.77;;;10.60;99.90;;;;;;5017703;28;20202;-79
2022/04/30 06:39:47;;;;;;;13.80;5.33;;;10.90;99.90;;;;;;5015970;28;20174;-80
2022/04/30 06:42:13;;;;;;;12.07;5.67;;;10.50;99.90;;;;;;5015321;28;20175;-79
2022/04/30 06:44:39;;;;;;;9.93;5.53;;;10.50;99.90;;;;;;5015698;28;20316;-79
2022/04/30 06:47:05;;;;;;;11.00;5.90;;;11.20;99.90;;;;;;5015041;28;20212;-79
2022/04/30 06:49:30;;;;;;;9.93;5.27;;;11.40;99.90;;;;;;5015865;28;20647;-79
2022/04/30 06:51:56;;;;;;;9.43;5.73;;;11.50;99.90;;;;;;5015815;28;20202;-80
2022/04/30 06:57:12;;;;;;;9.93;5.03;;;11.60;99.90;;;;;;5017587;28;20621;-80
2022/04/30 06:59:41;;;;;;;11.07;5.30;;;12.00;99.90;;;;;;5016152;28;20194;-80
2022/04/30 07:02:18;;;;;;;7.87;4.67;;;12.30;99.90;;;;;;5015933;28;20639;-78
2022/04/30 07:04:46;;;;;;;13.10;5.90;;;12.50;99.90;;;;;;5015570;28;20180;-79
2022/04/30 07:07:12;;;;;;;10.00;5.40;;;12.30;99.90;;;;;;5015409;28;20230;-79
2022/04/30 07:09:38;;;;;;;9.93;5.63;;;12.40;99.90;;;;;;5016040;28;20225;-81
2022/04/30 07:12:06;;;;;;;10.27;5.50;;;12.70;99.90;;;;;;5015593;28;20170;-80
2022/04/30 07:14:35;;;;;;;8.33;4.43;;;12.90;99.90;;;;;;5015945;28;20175;-79
2022/04/30 07:17:06;;;;;;;12.00;5.33;;;12.70;99.90;;;;;;5015484;28;20194;-79
2022/04/30 07:19:32;;;;;;;12.40;5.43;;;12.10;99.90;;;;;;5015349;28;20175;-79
2022/04/30 07:21:57;;;;;;;10.53;5.97;;;11.20;99.90;;;;;;5015009;28;20177;-79
2022/04/30 07:24:23;;;;;;;10.30;5.57;;;11.30;99.90;;;;;;5014877;28;20639;-79
2022/04/30 07:26:49;;;;;;;12.23;6.13;;;11.00;99.90;;;;;;5014972;28;20214;-79
2022/04/30 07:29:14;;;;;;;14.20;5.97;;;10.90;99.90;;;;;;5015452;28;20565;-79
2022/04/30 07:31:40;;;;;;;8.53;5.63;;;10.80;99.90;;;;;;5014921;28;20174;-78
2022/04/30 07:34:09;;;;;;;10.43;5.47;;;10.90;99.90;;;;;;5012283;28;20170;-79
2022/04/30 07:36:35;;;;;;;10.53;5.80;;;10.90;99.90;;;;;;5011975;28;20204;-79
2022/04/30 07:39:00;;;;;;;9.17;5.40;;;10.70;99.90;;;;;;5016266;28;20168;-80
2022/04/30 07:41:26;;;;;;;12.23;5.47;;;11.30;99.90;;;;;;5014754;28;20206;-79
2022/04/30 07:43:52;;;;;;;9.20;4.63;;;11.40;99.90;;;;;;5014039;28;20185;-79
2022/04/30 07:46:17;;;;;;;10.00;5.37;;;11.50;99.90;;;;;;5013990;28;20269;-79
2022/04/30 07:48:44;;;;;;;11.50;4.67;;;12.20;99.90;;;;;;5012829;28;20577;-79
2022/04/30 07:51:14;;;;;;;7.50;4.73;;;12.40;99.90;;;;;;5006924;28;20586;-80
2022/04/30 07:53:41;;;;;;;10.33;4.80;;;11.90;99.90;;;;;;4994425;28;20168;-79
2022/04/30 07:56:08;;;;;;;9.40;4.47;;;11.30;99.90;;;;;;4994363;28;20198;-79
2022/04/30 07:58:34;;;;;;;12.97;4.57;;;11.30;99.90;;;;;;4994452;28;20666;-79
2022/04/30 08:01:00;;;;;;;9.30;4.70;;;10.50;99.90;;;;;;4994637;28;20177;-80
2022/04/30 08:03:25;;;;;;;9.67;4.03;;;11.50;99.90;;;;;;4994698;28;20182;-79
2022/04/30 08:05:51;;;;;;;5.03;4.27;;;12.50;99.90;;;;;;4993688;28;20225;-78
2022/04/30 08:08:17;;;;;;;7.80;4.27;;;13.00;99.90;;;;;;4995656;28;20175;-81
2022/04/30 08:10:43;;;;;;;5.37;3.37;;;12.70;98.80;;;;;;5001495;28;20171;-80
2022/04/30 08:13:08;;;;;;;11.07;4.00;;;13.90;96.90;;;;;;5007399;28;20682;-79
2022/04/30 08:15:34;;;;;;;6.87;3.87;;;14.50;95.50;;;;;;5001003;28;20201;-80
2022/04/30 08:18:00;;;;;;;5.87;4.27;;;14.50;96.20;;;;;;5004986;28;20282;-81
2022/04/30 08:20:26;;;;;;;10.43;4.00;;;13.70;94.00;;;;;;5003202;28;20649;-79
2022/04/30 08:22:52;;;;;;;8.30;4.40;;;13.60;97.60;;;;;;5003352;28;20235;-80
2022/04/30 08:25:18;;;;;;;6.53;3.97;;;13.80;95.40;;;;;;5002032;28;20540;-80
2022/04/30 08:27:43;;;;;;;11.77;4.03;;;14.70;95.50;;;;;;5005548;28;20698;-79
2022/04/30 08:30:10;;;;;;;8.17;4.33;;;13.90;94.50;;;;;;5003076;28;20193;-82
2022/04/30 08:32:36;;;;;;;6.03;4.00;;;14.70;94.10;;;;;;5004558;28;20178;-81
2022/04/30 08:35:03;;;;;;;5.53;4.37;;;15.00;93.50;;;;;;5004924;28;20217;-81
2022/04/30 08:37:29;;;;;;;8.20;4.10;;;14.80;93.40;;;;;;5019451;22;20376;-85
2022/04/30 08:39:55;;;;;;;7.67;3.40;;;14.40;93.10;;;;;;5018883;28;20179;-85
2022/04/30 08:42:23;;;;;;;7.73;3.57;;;15.20;92.70;;;;;;5036848;28;20178;-84
2022/04/30 08:44:49;;;;;;;7.10;3.53;;;15.00;92.30;;;;;;5018443;28;20697;-85
2022/04/30 08:47:15;;;;;;;7.27;4.17;;;15.00;91.90;;;;;;5016484;28;20198;-84
2022/04/30 08:49:42;;;;;;;7.43;3.80;;;14.20;92.30;;;;;;5036969;28;20188;-85
2022/04/30 08:52:09;;;;;;;5.17;3.70;;;14.70;92.40;;;;;;5018328;28;20169;-85
2022/04/30 08:54:35;;;;;;;7.37;3.80;;;15.20;91.50;;;;;;5037005;28;20621;-85
2022/04/30 08:57:00;;;;;;;7.47;3.57;;;14.80;90.50;;;;;;5018850;28;20261;-85
2022/04/30 08:59:27;;;;;;;6.60;3.70;;;14.10;91.40;;;;;;5018062;28;20178;-85
2022/04/30 09:01:55;;;;;;;6.13;3.67;;;14.60;92.50;;;;;;5018052;28;20521;-85
2022/04/30 09:04:21;;;;;;;6.47;3.80;;;14.60;90.90;;;;;;5019268;28;20593;-85
2022/04/30 09:06:52;;;;;;;5.77;4.00;;;15.40;91.60;;;;;;5032760;28;20205;-85
2022/04/30 09:09:29;;;;;;;7.60;3.97;;;16.30;90.00;;;;;;5036753;28;20654;-85
2022/04/30 09:12:15;;;;;;;7.83;4.60;;;15.30;89.70;;;;;;5018158;28;20173;-86
2022/04/30 09:14:42;;;;;;;6.10;3.87;;;14.90;90.70;;;;;;5017707;28;20244;-85
2022/04/30 09:17:10;;;;;;;5.87;3.77;;;14.30;91.30;;;;;;5036015;28;20253;-85
2022/04/30 09:19:45;;;;;;;7.27;4.27;;;14.20;91.60;;;;;;5018427;28;20547;-86
2022/04/30 09:22:11;;;;;;;6.70;3.57;;;14.00;91.80;;;;;;5034238;28;20708;-85
2022/04/30 09:24:50;;;;;;;6.50;3.60;;;14.30;91.00;;;;;;5035280;28;20182;-86
2022/04/30 09:27:17;;;;;;;5.07;3.70;;;14.00;90.90;;;;;;5016583;28;20197;-86
2022/04/30 09:29:44;;;;;;;4.27;3.10;;;14.80;90.10;;;;;;5034825;28;20187;-85
2022/04/30 09:32:19;;;;;;;4.07;3.07;;;15.10;88.40;;;;;;5034549;28;20177;-86
2022/04/30 09:37:42;;;;;;;5.03;2.90;;;15.30;83.20;;;;;;5035262;28;20258;-86
2022/04/30 09:40:14;;;;;;;6.87;2.97;;;15.80;84.80;;;;;;5016313;28;20653;-86
2022/04/30 09:42:46;;;;;;;5.33;2.93;;;14.80;82.60;;;;;;5017151;28;20170;-86
2022/04/30 09:45:31;;;;;;;5.73;3.00;;;15.00;86.80;;;;;;5017655;28;20197;-87
2022/04/30 09:47:59;;;;;;;3.30;2.80;;;15.30;87.70;;;;;;5035113;28;20185;-85
2022/04/30 09:56:05;;;;;;;9.10;3.23;;;14.80;84.60;;;;;;5032803;28;20179;-85
2022/04/30 09:58:36;;;;;;;7.60;3.57;;;15.10;83.50;;;;;;5014916;28;20201;-86
2022/04/30 10:01:04;;;;;;;5.03;3.33;;;15.40;82.90;;;;;;5013738;28;20609;-86
2022/04/30 10:03:30;;;;;;;4.10;3.00;;;16.10;80.90;;;;;;5034076;28;20703;-86
2022/04/30 10:06:02;;;;;;;5.33;3.07;;;15.70;78.60;;;;;;5014353;28;20676;-86
2022/04/30 10:08:39;;;;;;;3.97;2.83;;;15.90;77.10;;;;;;5032863;28;20180;-86
2022/04/30 10:11:18;;;;;;;3.53;2.90;;;16.50;80.90;;;;;;5013360;28;20180;-85
2022/04/30 10:13:48;;;;;;;5.03;2.80;;;15.80;80.30;;;;;;5017054;28;20204;-85
2022/04/30 10:16:30;;;;;;;4.20;2.90;;;15.90;79.10;;;;;;5036428;28;20166;-86
2022/04/30 10:18:58;;;;;;;4.00;2.73;;;15.20;79.50;;;;;;5018231;28;20181;-85
2022/04/30 10:21:24;;;;;;;2.80;2.60;;;15.30;80.80;;;;;;5034652;28;20701;-86
2022/04/30 10:23:59;;;;;;;2.50;2.30;;;16.00;79.50;;;;;;5034305;28;20194;-86
2022/04/30 10:26:25;;;;;;;3.30;2.90;;;16.30;77.20;;;;;;5034289;28;20205;-86
2022/04/30 10:29:20;;;;;;;2.53;2.33;;;16.60;77.70;;;;;;5016633;28;20170;-85
2022/04/30 10:31:46;;;;;;;5.33;2.80;;;17.10;75.60;;;;;;5001910;28;20280;-86
2022/04/30 10:34:12;;;;;;;3.90;2.97;;;17.00;74.90;;;;;;5016356;28;20307;-86
2022/04/30 10:36:39;;;;;;;4.07;2.90;;;15.60;78.50;;;;;;5035063;28;20190;-85
2022/04/30 10:39:12;;;;;;;4.10;2.90;;;15.90;78.50;;;;;;5016761;28;20280;-85
2022/04/30 10:41:42;;;;;;;4.40;2.67;;;16.30;76.80;;;;;;5014324;28;20630;-86
2022/04/30 10:44:08;;;;;;;3.22;2.50;;;16.90;75.10;;;;;;5032547;28;20189;-85
2022/04/30 10:46:38;;;;;;;5.63;2.60;;;17.20;74.00;;;;;;5033418;28;20746;-85
2022/04/30 10:49:06;;;;;;;5.40;2.88;;;17.40;73.00;;;;;;5016092;28;20612;-86
2022/04/30 10:51:42;;;;;;;5.22;2.80;;;16.60;76.80;;;;;;5016329;28;20237;-86
2022/04/30 10:54:09;;;;;;;5.00;2.67;;;15.90;75.00;;;;;;5034370;28;20181;-86
2022/04/30 10:56:35;;;;;;;5.30;2.50;;;17.70;74.20;;;;;;5033302;28;20193;-86
2022/04/30 10:59:01;;;;;;;6.05;3.05;;;18.50;69.80;;;;;;5016546;28;20181;-85
2022/04/30 11:01:26;;;;;;;5.97;2.80;;;19.80;68.80;;;;;;5015114;28;20174;-85
2022/04/30 11:03:52;;;;;;;4.80;2.80;;;20.10;69.70;;;;;;5033629;28;20230;-86
2022/04/30 11:06:19;;;;;;;6.60;3.13;;;19.60;68.90;;;;;;5030713;28;20580;-86
2022/04/30 11:08:54;;;;;;;4.60;2.75;;;18.70;68.50;;;;;;5016283;28;20173;-86
2022/04/30 11:11:20;;;;;;;2.97;2.65;;;18.40;69.50;;;;;;5016420;28;20174;-86
2022/04/30 11:13:54;;;;;;;3.65;2.90;;;17.20;68.60;;;;;;5016416;28;20333;-86
2022/04/30 11:16:20;;;;;;;6.70;3.05;;;16.70;75.20;;;;;;5015189;28;20197;-85
2022/04/30 11:18:57;;;;;;;4.88;3.00;;;17.80;72.00;;;;;;5032892;28;20204;-86
2022/04/30 11:21:33;;;;;;;5.07;2.83;;;16.30;70.70;;;;;;5015767;28;20177;-85
2022/04/30 11:23:58;;;;;;;6.38;2.60;;;16.50;74.00;;;;;;5019290;28;20190;-85
2022/04/30 11:26:24;;;;;;;4.07;2.80;;;16.00;71.30;;;;;;5021087;28;20264;-86
2022/04/30 11:28:50;;;;;;;6.10;2.78;;;16.30;76.70;;;;;;5022297;28;20205;-86
2022/04/30 11:31:20;;;;;;;5.45;2.97;;;17.10;74.10;;;;;;5037540;28;20174;-86
2022/04/30 11:33:46;;;;;;;4.75;2.90;;;18.10;72.10;;;;;;5021250;28;20249;-85
2022/04/30 11:36:12;;;;;;;7.60;3.30;;;18.90;70.90;;;;;;5019398;28;20205;-86
2022/04/30 11:38:37;;;;;;;3.53;2.70;;;18.90;69.70;;;;;;5038948;28;20193;-86
2022/04/30 11:41:07;;;;;;;5.68;3.05;;;19.90;68.10;;;;;;5038501;28;20174;-88
2022/04/30 11:43:33;;;;;;;4.35;2.75;;;19.60;68.80;;;;;;5019677;28;20198;-86
2022/04/30 11:46:00;;;;;;;3.53;3.05;;;20.20;67.70;;;;;;5020094;28;20560;-85
2022/04/30 11:48:31;;;;;;;4.15;2.80;;;19.80;69.10;;;;;;5021726;28;20181;-86
2022/04/30 11:50:57;;;;;;;3.05;2.58;;;18.40;68.40;;;;;;5019818;28;20256;-86
2022/04/30 11:53:23;;;;;;;3.35;2.72;;;17.90;68.60;;;;;;5018143;28;20894;-86
2022/04/30 11:55:49;;;;;;;3.05;2.40;;;17.60;71.20;;;;;;5021399;28;20196;-86
2022/04/30 11:58:15;;;;;;;4.63;2.50;;;17.50;67.60;;;;;;5020441;28;20645;-86
2022/04/30 12:00:40;;;;;;;3.13;2.63;;;16.90;71.00;;;;;;5020337;28;20170;-87
2022/04/30 12:03:06;;;;;;;7.57;2.47;;;17.50;66.90;;;;;;5036444;28;20220;-85
2022/04/30 12:05:32;;;;;;;5.88;2.75;;;17.30;67.30;;;;;;5032346;28;20166;-86
2022/04/30 12:08:01;;;;;;;4.55;2.58;;;16.90;68.80;;;;;;5036355;28;20189;-86
2022/04/30 12:10:28;;;;;;;4.05;2.45;;;16.00;70.90;;;;;;5020082;28;20630;-86
2022/04/30 12:12:54;;;;;;;4.65;2.72;;;17.00;71.20;;;;;;5036572;28;20170;-86
2022/04/30 12:15:22;;;;;;;4.05;2.40;;;17.00;70.20;;;;;;5018899;28;20189;-85
2022/04/30 12:26:13;;;;;;;3.40;2.50;;;16.70;70.70;;;;;;5034186;28;20201;-85
2022/04/30 12:28:52;;;;;;;2.80;2.40;;;17.00;71.00;;;;;;5016163;28;20201;-85
2022/04/30 12:31:19;;;;;;;4.40;2.65;;;16.80;70.50;;;;;;5033523;28;20256;-86
2022/04/30 12:33:50;;;;;;;6.83;2.30;;;16.50;73.70;;;;;;5015410;28;20190;-85
2022/04/30 12:36:17;;;;;;;3.57;2.40;;;16.40;73.90;;;;;;5016742;28;20654;-87
2022/04/30 12:38:55;;;;;;;4.97;2.77;;;16.70;71.90;;;;;;5034074;28;20236;-85
2022/04/30 12:41:22;;;;;;;3.17;2.60;;;16.80;71.40;;;;;;5012337;28;20243;-85
2022/04/30 12:43:49;;;;;;;7.17;2.90;;;16.40;71.20;;;;;;5015893;28;20577;-86
2022/04/30 12:46:22;;;;;;;5.80;2.53;;;17.10;70.70;;;;;;5033365;28;20255;-85
2022/04/30 12:48:49;;;;;;;3.37;2.40;;;17.50;71.30;;;;;;5015954;28;20228;-85
2022/04/30 12:51:16;;;;;;;3.83;2.63;;;17.10;70.40;;;;;;5034630;28;20176;-85
2022/04/30 12:53:42;;;;;;;5.30;2.93;;;17.00;71.10;;;;;;5033495;28;20189;-85
2022/04/30 12:56:07;;;;;;;4.00;2.53;;;15.80;71.70;;;;;;5011975;28;20277;-85
2022/04/30 12:58:34;;;;;;;4.63;2.47;;;15.70;74.90;;;;;;5034427;28;20212;-85
2022/04/30 13:01:00;;;;;;;4.90;3.13;;;15.80;74.50;;;;;;5034959;28;20198;-86
2022/04/30 13:03:27;;;;;;;4.33;2.33;;;15.80;72.00;;;;;;5014984;28;20625;-85
2022/04/30 13:05:53;;;;;;;3.17;2.50;;;15.90;74.90;;;;;;5012258;28;20670;-85
2022/04/30 13:08:18;;;;;;;7.63;2.53;;;15.20;71.60;;;;;;5015100;28;20221;-85
2022/04/30 13:13:31;;;;;;;20.13;3.37;;;15.00;72.10;;;;;;5032647;28;20223;-87
2022/04/30 13:15:57;;;;;;;5.90;2.40;;;14.90;73.20;;;;;;5015096;28;20180;-86
2022/04/30 13:18:23;;;;;;;4.00;2.23;;;15.70;72.50;;;;;;5032652;28;20162;-86
2022/04/30 13:20:49;;;;;;;4.87;2.50;;;15.90;72.00;;;;;;5014939;28;20189;-86
2022/04/30 13:23:14;;;;;;;3.40;2.20;;;15.90;72.10;;;;;;5032494;28;20186;-85
2022/04/30 13:25:40;;;;;;;3.80;2.53;;;15.90;72.80;;;;;;5014989;28;20269;-86
2022/04/30 13:28:06;;;;;;;4.70;2.33;;;16.30;71.60;;;;;;5014917;28;20170;-85
2022/04/30 13:30:32;;;;;;;4.10;2.20;;;16.30;71.70;;;;;;5016584;28;20246;-85
2022/04/30 13:32:58;;;;;;;2.50;2.30;;;16.10;72.70;;;;;;5032470;28;20174;-85
2022/04/30 13:35:24;;;;;;;3.23;2.30;;;16.50;72.10;;;;;;5031691;28;20186;-86